Time;durP1;ratioP1;P1;durP2;ratioP2;P2;SDS_P1;SDS_P2;PMS_P1;PMS_P2;Temp;Humidity;BMP_temperature;BMP_pressure;BME280_temperature;BME280_humidity;BME280_pressure;Samples;Min_cycle;Max_cycle;Signal;HPM_P1;HPM_P2
2023/03/23 00:00:06;;;;;;;3.10;1.10;;;;;;;13.09;65.13;99722.58;108536;1260;76026;-67
2023/03/23 00:02:35;;;;;;;2.60;1.10;;;;;;;13.10;65.50;99730.39;108433;1260;71159;-67
2023/03/23 00:05:03;;;;;;;3.60;1.20;;;;;;;13.07;66.50;99723.81;108666;1257;72050;-68
2023/03/23 00:07:28;;;;;;;4.20;1.20;;;;;;;13.04;67.53;99718.77;108667;1258;62699;-68
2023/03/23 00:09:55;;;;;;;3.00;1.10;;;;;;;12.99;69.01;99723.66;108575;1260;59141;-67
2023/03/23 00:12:32;;;;;;;4.10;1.20;;;;;;;12.91;70.03;99723.14;108570;1259;59330;-67
2023/03/23 00:15:08;;;;;;;4.10;1.20;;;;;;;12.77;71.17;99722.16;108700;1259;71851;-67
2023/03/23 00:17:34;;;;;;;3.60;1.30;;;;;;;12.62;72.60;99721.05;108721;1259;71712;-68
2023/03/23 00:20:04;;;;;;;2.80;1.10;;;;;;;12.46;73.65;99720.95;108735;1259;59386;-68
2023/03/23 00:22:30;;;;;;;3.70;1.80;;;;;;;12.31;74.32;99714.46;108570;1259;59153;-68
2023/03/23 00:24:56;;;;;;;3.80;1.80;;;;;;;12.20;74.86;99717.40;108613;1260;59256;-68
2023/03/23 00:27:23;;;;;;;4.40;1.80;;;;;;;12.16;75.56;99722.61;108696;1259;59272;-68
2023/03/23 00:29:55;;;;;;;5.30;1.70;;;;;;;12.12;76.01;99714.19;108644;1257;59034;-68
2023/03/23 00:32:28;;;;;;;2.70;1.60;;;;;;;12.07;76.66;99706.73;108716;1257;61743;-68
2023/03/23 00:35:00;;;;;;;3.20;1.80;;;;;;;12.02;77.31;99705.96;108771;1258;59245;-68
2023/03/23 00:37:27;;;;;;;3.50;2.20;;;;;;;11.99;77.88;99702.78;108632;1260;72638;-68
2023/03/23 00:39:57;;;;;;;4.80;2.20;;;;;;;11.94;79.14;99700.75;108610;1259;59364;-68
2023/03/23 00:42:23;;;;;;;3.60;1.50;;;;;;;11.85;80.26;99702.63;108584;1261;71041;-68
2023/03/23 00:44:49;;;;;;;6.70;2.50;;;;;;;11.77;80.84;99706.89;108591;1259;59490;-68
2023/03/23 00:47:17;;;;;;;6.00;2.10;;;;;;;11.71;81.79;99699.01;108659;1259;59234;-67
2023/03/23 00:49:43;;;;;;;4.40;1.70;;;;;;;11.66;81.99;99695.09;108559;1260;74774;-67
2023/03/23 00:52:10;;;;;;;5.30;1.80;;;;;;;11.61;82.40;99690.96;108500;1260;60040;-68
2023/03/23 00:54:37;;;;;;;5.20;1.60;;;;;;;11.56;82.73;99685.79;108715;1258;72572;-67
2023/03/23 00:57:03;;;;;;;4.30;1.60;;;;;;;11.55;83.10;99684.73;108582;1260;60578;-68
2023/03/23 00:59:29;;;;;;;5.10;2.10;;;;;;;11.52;83.65;99683.95;108703;1258;59020;-68
2023/03/23 01:01:55;;;;;;;3.80;1.80;;;;;;;11.50;83.83;99686.64;108745;1260;60338;-68
2023/03/23 01:04:20;;;;;;;4.80;1.80;;;;;;;11.49;84.08;99687.87;108598;1260;59242;-67
2023/03/23 01:06:50;;;;;;;5.40;2.90;;;;;;;11.49;84.10;99690.66;108663;1258;60306;-68
2023/03/23 01:09:16;;;;;;;4.50;2.00;;;;;;;11.51;84.67;99685.92;108573;1258;60485;-67
2023/03/23 01:11:47;;;;;;;5.00;2.10;;;;;;;11.51;84.55;99677.58;108551;1258;59024;-68
2023/03/23 01:14:15;;;;;;;5.60;2.50;;;;;;;11.51;85.13;99674.59;108508;1259;74593;-68
2023/03/23 01:16:41;;;;;;;5.60;2.50;;;;;;;11.50;85.69;99675.25;108624;1257;70596;-68
2023/03/23 01:19:06;;;;;;;5.50;3.10;;;;;;;11.48;85.86;99686.16;108551;1257;60049;-67
2023/03/23 01:21:32;;;;;;;3.80;2.60;;;;;;;11.47;85.85;99678.92;108529;1257;59093;-68
2023/03/23 01:23:57;;;;;;;4.60;2.00;;;;;;;11.49;85.74;99668.06;108614;1259;59127;-68
2023/03/23 01:26:26;;;;;;;5.10;1.90;;;;;;;11.50;85.49;99665.23;108749;1257;59203;-69
2023/03/23 01:28:52;;;;;;;5.70;2.70;;;;;;;11.51;85.69;99662.01;108453;1260;72404;-69
2023/03/23 01:31:20;;;;;;;5.50;2.10;;;;;;;11.53;85.66;99662.98;108496;1258;59024;-68
2023/03/23 01:33:47;;;;;;;4.00;2.10;;;;;;;11.55;85.59;99661.10;108716;1258;60391;-68
2023/03/23 01:36:15;;;;;;;2.70;1.70;;;;;;;11.56;85.46;99654.14;108581;1258;59221;-68
2023/03/23 01:38:42;;;;;;;4.80;1.80;;;;;;;11.55;85.29;99651.91;108601;1259;70122;-69
2023/03/23 01:41:08;;;;;;;3.20;1.50;;;;;;;11.57;85.58;99652.88;108543;1261;71689;-68
2023/03/23 01:43:34;;;;;;;6.00;1.80;;;;;;;11.57;85.35;99651.49;108739;1258;59007;-68
2023/03/23 01:46:00;;;;;;;2.60;1.30;;;;;;;11.57;85.56;99650.27;108525;1258;59464;-68
2023/03/23 01:48:35;;;;;;;3.60;1.60;;;;;;;11.57;85.61;99641.92;108599;1258;59538;-68
2023/03/23 01:51:09;;;;;;;3.70;1.60;;;;;;;11.56;85.84;99644.30;108476;1259;71326;-68
2023/03/23 01:53:42;;;;;;;4.20;1.80;;;;;;;11.53;86.21;99641.04;108538;1258;72638;-68
2023/03/23 01:56:11;;;;;;;5.40;1.50;;;;;;;11.52;86.33;99638.39;108682;1259;61143;-69
2023/03/23 01:58:38;;;;;;;3.10;1.50;;;;;;;11.49;86.85;99633.38;108460;1258;59536;-69
2023/03/23 02:01:07;;;;;;;3.40;1.70;;;;;;;11.45;87.25;99638.64;108678;1257;73636;-68
2023/03/23 02:03:36;;;;;;;2.60;1.60;;;;;;;11.39;87.84;99641.48;108710;1259;70064;-68
2023/03/23 02:06:02;;;;;;;4.50;1.90;;;;;;;11.36;88.33;99639.47;108713;1257;71185;-67
2023/03/23 02:08:29;;;;;;;3.60;1.70;;;;;;;11.29;88.95;99636.98;108711;1259;59126;-68
2023/03/23 02:10:55;;;;;;;6.10;2.40;;;;;;;11.25;89.31;99633.68;108634;1258;59107;-67
2023/03/23 02:13:21;;;;;;;3.30;1.70;;;;;;;11.20;89.43;99630.63;108661;1258;59552;-67
2023/03/23 02:16:06;;;;;;;5.20;1.90;;;;;;;11.16;90.09;99628.16;108714;1258;60285;-67
2023/03/23 02:18:34;;;;;;;4.50;2.10;;;;;;;11.13;90.25;99631.56;108688;1258;71599;-67
2023/03/23 02:21:18;;;;;;;3.90;1.60;;;;;;;11.11;90.46;99638.42;108762;1257;59827;-66
2023/03/23 02:23:56;;;;;;;6.50;1.80;;;;;;;11.10;90.39;99631.73;108722;1258;59298;-67
2023/03/23 02:26:21;;;;;;;3.60;2.00;;;;;;;11.12;90.61;99620.36;108744;1257;74687;-66
2023/03/23 02:28:56;;;;;;;3.40;1.70;;;;;;;11.11;90.53;99616.45;108623;1261;59497;-67
2023/03/23 02:31:48;;;;;;;4.50;1.90;;;;;;;11.11;90.73;99621.23;108728;1258;72086;-67
2023/03/23 02:34:25;;;;;;;3.80;1.80;;;;;;;11.10;90.78;99609.27;108637;1258;62286;-66
2023/03/23 02:37:00;;;;;;;4.00;1.70;;;;;;;11.09;90.69;99607.52;108707;1258;60615;-67
2023/03/23 02:39:32;;;;;;;3.30;1.70;;;;;;;11.08;90.83;99611.34;108654;1258;75019;-67
2023/03/23 02:42:05;;;;;;;3.60;1.50;;;;;;;11.08;90.78;99605.88;108715;1257;71021;-67
2023/03/23 02:44:34;;;;;;;3.80;1.70;;;;;;;11.07;90.96;99606.69;108670;1258;73526;-67
2023/03/23 02:47:03;;;;;;;2.80;1.60;;;;;;;11.05;90.82;99599.39;108592;1259;60373;-67
2023/03/23 02:49:32;;;;;;;5.10;1.90;;;;;;;11.05;90.28;99589.27;108634;1258;59987;-67
2023/03/23 02:51:59;;;;;;;5.20;1.80;;;;;;;11.06;90.31;99578.48;108663;1258;74317;-67
2023/03/23 02:54:26;;;;;;;3.80;1.70;;;;;;;11.05;89.98;99582.04;108604;1260;71345;-67
2023/03/23 02:56:54;;;;;;;3.40;1.40;;;;;;;11.07;89.69;99576.24;108510;1261;72558;-67
2023/03/23 02:59:20;;;;;;;3.20;1.40;;;;;;;11.07;89.43;99591.96;108540;1257;59951;-67
2023/03/23 03:01:52;;;;;;;4.50;1.60;;;;;;;11.09;89.25;99596.52;108632;1258;59086;-67
2023/03/23 03:04:21;;;;;;;2.50;1.30;;;;;;;11.12;88.99;99603.52;108646;1258;72666;-67
2023/03/23 03:07:08;;;;;;;4.40;1.60;;;;;;;11.15;88.77;99601.89;108579;1258;71770;-68
2023/03/23 03:09:57;;;;;;;4.70;1.50;;;;;;;11.18;88.76;99589.34;108728;1258;72844;-68
2023/03/23 03:12:51;;;;;;;3.10;1.50;;;;;;;11.19;88.71;99582.40;108685;1258;61023;-67
2023/03/23 03:15:32;;;;;;;2.70;1.40;;;;;;;11.22;88.86;99575.81;108689;1258;59840;-68
2023/03/23 03:18:14;;;;;;;2.80;1.60;;;;;;;11.23;88.69;99565.23;108586;1258;75147;-68
2023/03/23 03:20:47;;;;;;;3.50;1.70;;;;;;;11.23;89.00;99563.23;108764;1259;71264;-68
2023/03/23 03:23:15;;;;;;;2.80;1.60;;;;;;;11.23;89.28;99573.94;108532;1260;71537;-68
2023/03/23 03:25:47;;;;;;;3.70;1.60;;;;;;;11.24;89.50;99576.66;108687;1258;60795;-69
2023/03/23 03:28:16;;;;;;;4.50;1.80;;;;;;;11.24;89.95;99584.71;108543;1258;59036;-68
2023/03/23 03:30:46;;;;;;;4.00;1.90;;;;;;;11.22;90.33;99585.70;108735;1259;74732;-68
2023/03/23 03:33:12;;;;;;;3.90;1.70;;;;;;;11.19;90.64;99589.46;108614;1258;70395;-68
2023/03/23 03:35:41;;;;;;;3.80;1.80;;;;;;;11.16;91.25;99588.04;108415;1259;60019;-67
2023/03/23 03:38:10;;;;;;;3.70;1.80;;;;;;;11.14;92.17;99578.55;108707;1259;60439;-67
2023/03/23 03:40:36;;;;;;;3.60;2.00;;;;;;;11.08;93.11;99582.70;108604;1258;60093;-67
2023/03/23 03:43:03;;;;;;;2.70;1.70;;;;;;;11.02;93.76;99580.19;108745;1257;59422;-67
2023/03/23 03:45:28;;;;;;;4.20;2.10;;;;;;;10.96;94.33;99568.94;108594;1257;59138;-67
2023/03/23 03:47:54;;;;;;;4.60;1.90;;;;;;;10.93;94.87;99561.88;108641;1261;60155;-67
2023/03/23 03:50:19;;;;;;;4.50;2.00;;;;;;;10.89;95.17;99574.34;108507;1258;60369;-67
2023/03/23 03:52:45;;;;;;;3.80;2.00;;;;;;;10.85;95.43;99570.30;108665;1258;60296;-67
2023/03/23 03:55:11;;;;;;;3.20;2.00;;;;;;;10.86;94.89;99558.33;108610;1259;59565;-67
2023/03/23 03:57:37;;;;;;;5.50;2.00;;;;;;;10.87;95.12;99562.98;108493;1257;59667;-67
2023/03/23 04:00:14;;;;;;;3.30;1.80;;;;;;;10.87;94.95;99562.49;108618;1258;58877;-67
2023/03/23 04:02:47;;;;;;;5.50;2.00;;;;;;;10.89;94.24;99572.98;108723;1258;61079;-68
2023/03/23 04:05:13;;;;;;;3.70;1.80;;;;;;;10.91;94.22;99569.48;108649;1258;72808;-67
2023/03/23 04:07:39;;;;;;;3.30;2.00;;;;;;;10.93;94.37;99562.85;108546;1258;59508;-67
2023/03/23 04:10:06;;;;;;;3.80;1.80;;;;;;;10.94;93.92;99549.86;108626;1258;59451;-68
2023/03/23 04:12:32;;;;;;;3.30;1.80;;;;;;;10.95;93.77;99556.36;108659;1260;61152;-69
2023/03/23 04:14:58;;;;;;;3.00;1.80;;;;;;;10.96;93.72;99550.77;108589;1258;59352;-69
2023/03/23 04:17:25;;;;;;;4.30;2.10;;;;;;;10.98;93.17;99552.31;108720;1261;59112;-68
2023/03/23 04:19:52;;;;;;;4.20;1.70;;;;;;;10.99;93.15;99555.98;108625;1260;59131;-68
2023/03/23 04:22:18;;;;;;;4.60;1.80;;;;;;;11.02;93.23;99555.34;108658;1258;59180;-68
2023/03/23 04:24:43;;;;;;;3.80;1.60;;;;;;;11.02;93.22;99559.50;108678;1258;59173;-68
2023/03/23 04:27:09;;;;;;;3.90;1.70;;;;;;;11.02;93.40;99561.30;108799;1260;59049;-68
2023/03/23 04:29:35;;;;;;;2.80;1.70;;;;;;;11.02;93.38;99562.15;108676;1258;59025;-68
2023/03/23 04:32:01;;;;;;;3.60;1.80;;;;;;;11.02;92.87;99563.41;108770;1259;59080;-68
2023/03/23 04:34:27;;;;;;;3.00;1.80;;;;;;;11.02;92.90;99558.06;108704;1258;62144;-68
2023/03/23 04:36:53;;;;;;;4.00;1.50;;;;;;;11.02;92.53;99550.88;108723;1258;59122;-69
2023/03/23 04:39:18;;;;;;;3.90;1.80;;;;;;;11.02;92.13;99549.14;108641;1258;59088;-68
2023/03/23 04:41:46;;;;;;;3.30;1.60;;;;;;;11.02;91.87;99543.41;108825;1258;60066;-68
2023/03/23 05:22:14;;;;;;;3.10;1.40;;;;;;;11.16;87.52;99538.82;104555;1292;599303;-69
2023/03/23 05:24:42;;;;;;;2.50;1.30;;;;;;;11.12;87.48;99546.23;106437;1273;57785;-68
2023/03/23 05:27:09;;;;;;;2.50;1.00;;;;;;;11.10;87.54;99544.14;106383;1267;59290;-67
2023/03/23 05:29:36;;;;;;;2.50;1.20;;;;;;;11.10;87.36;99543.98;106410;1274;72280;-68
2023/03/23 05:32:05;;;;;;;3.50;1.40;;;;;;;11.13;87.46;99534.83;106592;1267;69700;-68
2023/03/23 05:34:32;;;;;;;4.10;1.30;;;;;;;11.12;87.45;99534.05;107516;1256;71426;-68
2023/03/23 05:36:59;;;;;;;3.20;1.30;;;;;;;11.12;87.35;99536.98;108003;1254;297563;-74
2023/03/23 05:39:26;;;;;;;2.70;1.30;;;;;;;11.11;87.21;99545.29;109022;1253;60373;-75
2023/03/23 05:41:52;;;;;;;3.20;1.30;;;;;;;11.13;87.09;99542.17;108878;1253;72340;-73
2023/03/23 05:44:18;;;;;;;2.60;1.30;;;;;;;11.15;86.93;99536.30;108913;1253;57037;-75
2023/03/23 05:46:45;;;;;;;3.00;1.60;;;;;;;11.16;87.16;99537.32;108912;1256;59686;-75
2023/03/23 05:49:11;;;;;;;4.20;1.50;;;;;;;11.19;86.88;99531.67;108611;1254;57909;-74
2023/03/23 05:51:37;;;;;;;2.80;1.30;;;;;;;11.21;86.83;99534.77;108601;1252;58981;-75
2023/03/23 05:54:03;;;;;;;2.90;1.20;;;;;;;11.24;86.32;99535.58;107555;1257;59733;-75
2023/03/23 05:56:30;;;;;;;2.80;1.30;;;;;;;11.26;86.03;99539.65;108165;1254;59686;-74
2023/03/23 05:58:57;;;;;;;2.70;1.20;;;;;;;11.27;85.83;99541.29;107599;1254;59779;-78
2023/03/23 06:01:24;;;;;;;4.40;1.30;;;;;;;11.29;85.84;99536.42;107153;1254;59635;-75
2023/03/23 06:03:53;;;;;;;2.90;1.50;;;;;;;11.30;85.11;99540.84;107311;1254;59628;-74
2023/03/23 06:06:20;;;;;;;3.00;1.10;;;;;;;11.31;84.77;99548.59;107419;1254;74103;-75
2023/03/23 06:08:45;;;;;;;4.40;1.10;;;;;;;11.34;84.33;99552.23;107586;1252;59744;-74
2023/03/23 06:11:11;;;;;;;2.30;1.00;;;;;;;11.39;84.49;99547.84;107201;1254;59860;-76
2023/03/23 06:13:37;;;;;;;2.20;0.90;;;;;;;11.42;84.26;99551.67;107820;1254;59698;-73
2023/03/23 06:16:03;;;;;;;2.90;0.90;;;;;;;11.45;83.81;99547.75;108024;1254;59769;-74
2023/03/23 06:18:33;;;;;;;2.50;1.00;;;;;;;11.51;83.59;99543.85;107368;1257;59243;-73
2023/03/23 06:21:00;;;;;;;2.80;0.90;;;;;;;11.55;83.37;99545.05;107377;1253;69688;-76
2023/03/23 06:23:26;;;;;;;3.10;1.00;;;;;;;11.58;83.22;99541.00;107067;1254;71538;-72
2023/03/23 06:25:59;;;;;;;1.70;0.80;;;;;;;11.63;83.08;99540.05;107065;1255;59560;-72
2023/03/23 06:28:25;;;;;;;1.70;0.70;;;;;;;11.67;82.71;99538.10;107183;1254;59579;-71
2023/03/23 06:30:51;;;;;;;1.50;0.80;;;;;;;11.68;82.71;99538.02;107390;1254;59762;-72
2023/03/23 06:33:17;;;;;;;2.20;0.90;;;;;;;11.71;82.46;99534.33;107527;1258;60225;-72
2023/03/23 06:35:43;;;;;;;1.80;0.70;;;;;;;11.72;82.36;99545.67;107435;1254;59729;-73
2023/03/23 06:38:09;;;;;;;3.20;1.10;;;;;;;11.74;82.37;99537.17;107156;1254;59744;-71
2023/03/23 06:40:38;;;;;;;1.50;0.80;;;;;;;11.80;82.23;99539.81;107455;1254;59766;-71
2023/03/23 06:43:04;;;;;;;2.20;0.80;;;;;;;11.83;82.19;99537.47;107241;1254;59666;-72
2023/03/23 06:45:30;;;;;;;1.80;0.80;;;;;;;11.86;81.99;99544.52;107397;1254;59641;-71
2023/03/23 06:47:57;;;;;;;1.70;0.80;;;;;;;11.90;81.69;99552.26;106962;1254;60801;-72
2023/03/23 06:50:23;;;;;;;2.80;0.90;;;;;;;11.98;81.62;99554.73;107226;1254;59609;-70
2023/03/23 06:52:50;;;;;;;1.50;0.80;;;;;;;12.04;81.50;99555.88;108276;1254;59302;-71
2023/03/23 06:55:17;;;;;;;1.80;0.80;;;;;;;12.10;81.22;99562.32;107553;1254;59846;-71
2023/03/23 06:57:43;;;;;;;1.90;0.80;;;;;;;12.12;80.98;99569.45;107964;1254;59625;-72
2023/03/23 07:00:13;;;;;;;1.90;0.80;;;;;;;12.20;80.96;99558.33;107659;1254;58256;-71
2023/03/23 07:02:44;;;;;;;1.90;1.00;;;;;;;12.21;80.80;99562.91;108244;1256;62332;-70
2023/03/23 07:05:11;;;;;;;2.00;0.80;;;;;;;12.21;80.53;99571.73;107001;1256;60139;-72
2023/03/23 07:07:38;;;;;;;3.10;1.00;;;;;;;12.18;80.61;99570.73;107565;1254;71875;-70
2023/03/23 07:10:06;;;;;;;1.80;0.90;;;;;;;12.16;80.94;99575.82;107765;1254;69812;-70
2023/03/23 07:12:33;;;;;;;2.10;1.10;;;;;;;12.12;80.74;99576.41;107337;1254;71740;-70
2023/03/23 07:14:58;;;;;;;1.40;0.80;;;;;;;12.10;81.13;99577.48;107373;1254;60502;-70
2023/03/23 07:17:24;;;;;;;4.00;1.90;;;;;;;12.06;81.16;99570.39;107472;1254;59782;-71
2023/03/23 07:19:50;;;;;;;6.40;4.00;;;;;;;12.06;81.15;99575.54;106985;1254;59642;-71
2023/03/23 07:22:16;;;;;;;1.90;0.60;;;;;;;12.08;81.10;99569.33;106937;1254;60964;-71
2023/03/23 07:24:41;;;;;;;2.10;0.90;;;;;;;12.09;81.30;99577.77;107324;1255;59746;-70
2023/03/23 07:27:07;;;;;;;1.70;0.80;;;;;;;12.14;81.10;99577.55;107861;1253;59682;-71
2023/03/23 07:29:35;;;;;;;1.70;0.90;;;;;;;12.20;81.16;99570.85;107403;1254;71761;-72
2023/03/23 07:32:02;;;;;;;2.00;0.70;;;;;;;12.24;80.68;99576.67;107156;1257;70269;-71
2023/03/23 07:34:28;;;;;;;2.20;1.00;;;;;;;12.32;80.59;99573.76;107193;1254;72751;-71
2023/03/23 07:36:53;;;;;;;2.50;0.90;;;;;;;12.40;80.31;99576.81;107385;1257;60160;-72
2023/03/23 07:39:19;;;;;;;2.60;0.90;;;;;;;12.52;80.22;99576.09;107486;1256;60154;-72
2023/03/23 07:41:45;;;;;;;2.50;0.90;;;;;;;12.60;79.67;99569.08;107119;1254;58425;-72
2023/03/23 07:44:13;;;;;;;1.90;0.90;;;;;;;12.68;79.19;99572.30;107686;1253;59799;-71
2023/03/23 07:46:39;;;;;;;2.60;0.90;;;;;;;12.78;78.58;99580.04;107702;1255;57859;-72
2023/03/23 07:49:05;;;;;;;2.50;0.90;;;;;;;12.82;78.05;99578.61;107285;1254;60126;-73
2023/03/23 07:51:32;;;;;;;2.00;0.90;;;;;;;12.91;77.77;99573.84;106899;1255;59972;-72
2023/03/23 07:53:58;;;;;;;2.50;0.90;;;;;;;12.98;77.25;99572.99;107655;1254;59535;-74
2023/03/23 07:56:24;;;;;;;2.40;0.90;;;;;;;13.06;76.86;99573.41;107883;1254;60117;-75
2023/03/23 07:58:51;;;;;;;2.70;0.90;;;;;;;13.22;76.83;99563.60;107296;1259;59798;-73
2023/03/23 08:01:20;;;;;;;2.10;0.90;;;;;;;13.35;76.06;99572.77;106992;1257;59683;-73
2023/03/23 08:03:46;;;;;;;3.20;1.00;;;;;;;13.45;75.52;99569.83;107870;1254;59567;-72
2023/03/23 08:06:12;;;;;;;2.70;1.00;;;;;;;13.51;74.90;99573.52;107385;1254;59540;-73
2023/03/23 08:08:40;;;;;;;2.80;0.90;;;;;;;13.58;73.91;99576.90;107287;1254;59756;-72
2023/03/23 08:11:06;;;;;;;3.00;1.10;;;;;;;13.67;73.81;99585.79;107429;1254;72396;-72
2023/03/23 08:13:33;;;;;;;2.70;1.10;;;;;;;13.74;72.85;99593.78;106959;1254;59738;-73
2023/03/23 08:16:00;;;;;;;2.60;1.20;;;;;;;13.78;72.58;99586.60;107300;1254;59709;-73
2023/03/23 08:18:26;;;;;;;2.50;1.00;;;;;;;13.85;72.65;99577.16;107186;1254;72327;-72
2023/03/23 08:20:53;;;;;;;2.90;1.00;;;;;;;13.85;71.63;99585.62;107580;1254;58430;-73
2023/03/23 08:23:20;;;;;;;3.00;1.20;;;;;;;13.89;72.05;99581.05;107318;1254;71842;-73
2023/03/23 08:25:46;;;;;;;5.90;2.20;;;;;;;14.00;72.48;99581.88;107157;1254;61831;-75
2023/03/23 08:28:13;;;;;;;5.30;1.40;;;;;;;14.10;71.70;99586.38;106828;1256;60672;-73
2023/03/23 08:30:40;;;;;;;2.60;1.30;;;;;;;14.07;70.59;99589.12;106690;1254;72877;-73
2023/03/23 08:33:06;;;;;;;3.40;1.40;;;;;;;14.09;70.78;99588.36;107009;1255;59686;-72
2023/03/23 08:35:32;;;;;;;3.50;1.00;;;;;;;14.12;70.88;99603.45;106844;1258;59702;-72
2023/03/23 08:37:58;;;;;;;4.30;1.30;;;;;;;14.14;70.53;99604.25;108293;1255;58365;-73
2023/03/23 08:40:26;;;;;;;4.00;1.30;;;;;;;14.16;70.66;99594.79;108718;1256;57711;-74
2023/03/23 08:42:53;;;;;;;5.10;1.50;;;;;;;14.16;70.05;99596.98;107800;1254;59650;-74
2023/03/23 08:45:22;;;;;;;3.60;1.20;;;;;;;14.17;70.20;99595.17;107008;1253;72138;-73
2023/03/23 08:47:51;;;;;;;5.20;1.40;;;;;;;14.20;70.42;99595.11;108162;1255;71400;-76
2023/03/23 08:50:22;;;;;;;3.80;1.20;;;;;;;14.21;70.46;99592.58;106512;1260;60533;-74
2023/03/23 08:52:49;;;;;;;2.70;1.30;;;;;;;14.26;70.36;99593.51;106927;1258;59723;-73
2023/03/23 08:55:17;;;;;;;3.50;1.50;;;;;;;14.29;69.92;99602.65;107280;1255;73858;-73
2023/03/23 08:57:44;;;;;;;3.60;1.40;;;;;;;14.31;70.04;99604.73;106792;1254;71193;-72
2023/03/23 09:00:17;;;;;;;4.90;1.40;;;;;;;14.27;69.96;99599.35;107716;1254;71455;-74
2023/03/23 09:02:48;;;;;;;4.20;1.30;;;;;;;14.23;69.99;99602.73;107596;1254;60769;-73
2023/03/23 09:05:16;;;;;;;6.30;1.30;;;;;;;14.20;69.96;99611.60;107375;1256;59774;-74
2023/03/23 09:07:44;;;;;;;4.40;1.50;;;;;;;14.19;70.36;99612.39;107253;1255;73144;-73
2023/03/23 09:10:10;;;;;;;6.00;1.60;;;;;;;14.24;70.70;99614.45;107165;1254;71257;-74
2023/03/23 09:12:36;;;;;;;4.10;1.60;;;;;;;14.24;70.53;99618.31;106836;1254;59823;-73
2023/03/23 09:15:08;;;;;;;3.80;1.10;;;;;;;14.19;70.79;99623.13;107057;1254;59659;-71
2023/03/23 09:17:39;;;;;;;5.30;1.70;;;;;;;14.12;70.46;99624.86;106974;1255;59557;-73
2023/03/23 09:20:10;;;;;;;5.40;1.70;;;;;;;14.10;70.87;99620.56;107758;1255;72081;-73
2023/03/23 09:22:40;;;;;;;4.80;1.40;;;;;;;14.04;70.72;99622.42;106707;1254;69728;-73
2023/03/23 09:25:08;;;;;;;5.30;1.70;;;;;;;14.02;70.99;99621.09;107034;1255;71469;-75
2023/03/23 09:27:36;;;;;;;4.90;1.50;;;;;;;13.96;70.63;99628.48;106921;1258;61866;-75
2023/03/23 09:30:06;;;;;;;7.10;1.70;;;;;;;13.93;71.12;99634.30;106900;1254;61173;-72
2023/03/23 09:32:33;;;;;;;6.40;1.80;;;;;;;13.91;71.54;99636.73;106796;1254;72458;-73
2023/03/23 09:34:59;;;;;;;6.00;1.30;;;;;;;13.91;71.80;99633.01;107061;1254;70137;-73
2023/03/23 09:37:25;;;;;;;4.80;1.80;;;;;;;13.91;71.59;99629.73;107394;1256;60498;-73
2023/03/23 09:39:54;;;;;;;4.80;1.50;;;;;;;13.93;71.72;99635.15;107475;1256;61064;-73
2023/03/23 09:42:57;;;;;;;5.10;1.40;;;;;;;14.00;71.68;99633.59;106793;1256;60595;-72
2023/03/23 09:45:41;;;;;;;4.20;1.50;;;;;;;14.00;71.15;99637.12;106995;1254;72623;-73
2023/03/23 09:48:25;;;;;;;8.60;1.80;;;;;;;13.99;71.03;99641.35;106721;1256;70335;-72
2023/03/23 09:51:01;;;;;;;8.10;1.70;;;;;;;13.94;70.39;99646.30;106939;1253;72381;-73
2023/03/23 09:53:35;;;;;;;4.80;1.40;;;;;;;13.89;70.50;99650.04;106897;1254;60447;-71
2023/03/23 09:56:05;;;;;;;3.90;1.40;;;;;;;13.87;71.01;99653.38;107606;1254;60365;-75
2023/03/23 09:58:37;;;;;;;6.00;1.70;;;;;;;13.83;70.89;99653.51;107243;1254;72569;-73
2023/03/23 10:01:10;;;;;;;4.10;1.50;;;;;;;13.81;70.97;99652.79;106784;1255;70949;-75
2023/03/23 10:03:41;;;;;;;4.50;1.40;;;;;;;13.74;70.76;99654.02;107049;1255;71720;-73
2023/03/23 10:06:19;;;;;;;5.00;1.70;;;;;;;13.72;71.02;99659.02;107061;1256;60760;-73
2023/03/23 10:08:52;;;;;;;5.80;1.60;;;;;;;13.66;71.64;99653.69;107106;1254;59836;-73
2023/03/23 10:11:40;;;;;;;6.50;1.60;;;;;;;13.64;71.69;99658.27;106953;1254;73630;-72
2023/03/23 10:14:08;;;;;;;6.50;1.50;;;;;;;13.61;72.04;99663.13;107580;1254;71426;-73
2023/03/23 10:16:40;;;;;;;4.70;1.50;;;;;;;13.57;71.85;99664.77;107901;1260;72382;-73
2023/03/23 10:19:21;;;;;;;7.20;2.00;;;;;;;13.56;71.90;99664.83;106626;1257;60611;-74
2023/03/23 10:21:54;;;;;;;6.80;1.70;;;;;;;13.56;72.20;99672.83;106875;1255;61302;-73
2023/03/23 10:24:25;;;;;;;6.60;1.70;;;;;;;13.55;72.07;99673.19;107113;1255;72792;-73
2023/03/23 10:27:32;;;;;;;8.80;2.10;;;;;;;13.58;71.50;99678.70;107445;1260;71192;-72
2023/03/23 10:30:18;;;;;;;4.00;1.40;;;;;;;13.65;71.22;99676.52;106941;1254;72770;-73
2023/03/23 10:32:49;;;;;;;7.30;1.90;;;;;;;13.73;70.32;99682.89;107481;1256;60491;-73
2023/03/23 10:35:25;;;;;;;7.10;1.90;;;;;;;13.82;69.77;99685.67;107493;1256;60499;-76
2023/03/23 10:38:00;;;;;;;7.60;1.70;;;;;;;13.89;69.04;99690.92;106703;1254;73724;-76
2023/03/23 10:40:29;;;;;;;5.40;1.50;;;;;;;14.00;68.68;99682.89;106655;1255;69892;-74
2023/03/23 10:42:56;;;;;;;5.20;1.60;;;;;;;14.10;68.36;99678.48;106831;1254;72214;-74
2023/03/23 10:45:26;;;;;;;4.60;1.40;;;;;;;14.20;68.15;99681.65;106939;1256;61049;-74
2023/03/23 10:47:57;;;;;;;5.60;1.60;;;;;;;14.30;67.42;99675.41;106667;1254;60546;-75
2023/03/23 10:50:28;;;;;;;6.10;1.60;;;;;;;14.41;67.04;99695.02;107590;1254;73557;-74
2023/03/23 10:52:57;;;;;;;5.60;1.60;;;;;;;14.56;66.42;99685.77;107137;1254;69838;-74
2023/03/23 10:55:26;;;;;;;6.90;1.80;;;;;;;14.71;66.16;99691.40;107460;1255;70650;-74
2023/03/23 10:58:08;;;;;;;7.60;2.10;;;;;;;14.91;65.15;99678.11;107094;1254;61069;-76
2023/03/23 11:00:44;;;;;;;5.20;1.40;;;;;;;15.13;64.16;99682.73;107115;1254;61612;-74
2023/03/23 11:03:14;;;;;;;5.00;1.50;;;;;;;15.29;63.21;99692.96;106898;1254;74401;-75
2023/03/23 11:05:57;;;;;;;5.90;2.00;;;;;;;15.51;62.69;99686.78;107001;1254;70633;-75
2023/03/23 11:08:30;;;;;;;4.60;1.60;;;;;;;15.84;61.93;99682.05;107581;1254;72863;-75
2023/03/23 11:10:59;;;;;;;4.80;1.90;;;;;;;16.11;60.67;99681.07;106782;1254;59243;-75
2023/03/23 11:13:32;;;;;;;3.90;1.40;;;;;;;16.39;60.18;99687.77;107455;1253;59480;-74
2023/03/23 11:15:59;;;;;;;5.70;1.50;;;;;;;16.53;58.66;99681.46;107200;1256;74855;-75
2023/03/23 11:18:27;;;;;;;5.70;1.40;;;;;;;16.66;57.74;99681.39;107244;1254;69257;-74
2023/03/23 11:20:58;;;;;;;3.60;1.40;;;;;;;16.72;57.77;99671.43;107372;1256;72982;-75
2023/03/23 11:23:28;;;;;;;5.10;1.40;;;;;;;16.91;57.92;99671.52;106961;1254;60465;-76
2023/03/23 11:25:57;;;;;;;4.00;1.20;;;;;;;16.97;56.66;99674.50;107435;1254;60437;-76
2023/03/23 11:28:31;;;;;;;5.50;1.70;;;;;;;17.02;56.22;99673.80;107570;1254;73798;-75
2023/03/23 11:30:59;;;;;;;5.00;1.70;;;;;;;17.04;55.48;99675.80;106908;1254;71461;-75
2023/03/23 11:33:28;;;;;;;3.90;1.40;;;;;;;16.93;55.41;99676.10;107570;1253;72611;-75
2023/03/23 11:35:54;;;;;;;5.70;1.40;;;;;;;16.89;55.39;99675.49;106824;1254;60361;-75
2023/03/23 11:38:23;;;;;;;5.60;1.70;;;;;;;16.82;55.60;99681.47;107102;1254;60484;-76
2023/03/23 11:40:52;;;;;;;4.70;1.50;;;;;;;16.85;56.14;99671.34;106859;1255;73722;-76
2023/03/23 11:43:21;;;;;;;6.90;1.70;;;;;;;16.95;55.63;99670.25;106978;1253;69810;-75
2023/03/23 11:46:12;;;;;;;6.50;1.70;;;;;;;17.01;54.43;99680.36;107370;1254;71384;-74
2023/03/23 11:48:43;;;;;;;5.50;2.00;;;;;;;16.83;54.44;99668.77;107475;1255;59696;-75
2023/03/23 11:51:15;;;;;;;4.90;1.60;;;;;;;16.86;55.30;99665.02;107859;1255;60554;-76
2023/03/23 11:54:14;;;;;;;6.80;1.60;;;;;;;16.78;54.53;99677.22;107395;1254;71916;-75
2023/03/23 11:56:43;;;;;;;5.40;1.60;;;;;;;16.49;55.04;99678.44;107368;1254;70342;-76
2023/03/23 11:59:35;;;;;;;5.20;1.60;;;;;;;16.34;55.93;99674.45;107023;1254;71627;-76
2023/03/23 12:02:23;;;;;;;3.20;1.40;;;;;;;16.22;56.43;99665.33;106834;1255;60484;-75
2023/03/23 12:05:21;;;;;;;7.40;1.70;;;;;;;16.18;56.63;99670.23;107271;1254;60371;-74
2023/03/23 12:08:00;;;;;;;8.10;1.80;;;;;;;16.18;56.13;99665.42;107977;1255;73957;-76
2023/03/23 12:11:00;;;;;;;6.00;2.00;;;;;;;16.09;55.85;99667.82;106952;1254;70273;-75
2023/03/23 12:13:38;;;;;;;5.00;1.50;;;;;;;16.01;56.06;99663.96;106745;1256;72734;-75